Time;durP1;ratioP1;P1;durP2;ratioP2;P2;SDS_P1;SDS_P2;PMS_P1;PMS_P2;Temp;Humidity;BMP_temperature;BMP_pressure;BME280_temperature;BME280_humidity;BME280_pressure;Samples;Min_cycle;Max_cycle;Signal;HPM_P1;HPM_P2
2020/12/15 00:01:54;;;;;;;1.65;0.82;;;3.90;99.90;;;;;;4989804;28;20046;-55
2020/12/15 00:04:20;;;;;;;2.05;0.65;;;4.00;99.90;;;;;;4987242;28;20072;-53
2020/12/15 00:06:46;;;;;;;3.40;0.88;;;4.10;99.90;;;;;;4989017;28;20030;-53
2020/12/15 00:09:12;;;;;;;1.63;0.60;;;4.10;99.90;;;;;;4988037;28;20042;-53
2020/12/15 00:11:38;;;;;;;1.92;0.80;;;4.10;99.90;;;;;;4989534;28;20033;-51
2020/12/15 00:14:04;;;;;;;1.55;0.70;;;4.20;99.90;;;;;;4987461;28;20034;-50
2020/12/15 00:16:29;;;;;;;1.85;0.40;;;4.20;99.90;;;;;;4989317;28;20034;-54
2020/12/15 00:18:55;;;;;;;1.20;0.52;;;4.30;99.90;;;;;;4986570;28;20386;-50
2020/12/15 00:21:23;;;;;;;1.30;0.70;;;4.20;99.90;;;;;;4985287;28;20128;-55
2020/12/15 00:23:50;;;;;;;1.23;0.50;;;4.20;99.90;;;;;;4987810;28;20058;-56
2020/12/15 00:26:17;;;;;;;1.70;0.70;;;4.20;99.90;;;;;;4989210;28;20060;-49
2020/12/15 00:28:42;;;;;;;2.35;0.70;;;4.20;99.90;;;;;;4987760;28;20518;-57
2020/12/15 00:31:09;;;;;;;1.60;0.60;;;4.10;99.90;;;;;;4989051;28;20116;-54
2020/12/15 00:33:34;;;;;;;3.25;0.80;;;4.00;99.90;;;;;;4987861;28;20030;-56
2020/12/15 00:36:00;;;;;;;3.35;0.65;;;3.90;99.90;;;;;;4984705;28;20037;-53
2020/12/15 00:38:26;;;;;;;3.28;1.00;;;3.80;99.90;;;;;;4987648;28;20037;-50
2020/12/15 00:40:52;;;;;;;1.27;0.68;;;3.80;99.90;;;;;;4984461;28;20030;-52
2020/12/15 00:43:17;;;;;;;1.60;0.70;;;3.70;99.90;;;;;;4970296;28;20403;-54
2020/12/15 00:45:45;;;;;;;4.20;1.00;;;3.60;99.90;;;;;;4988227;28;20038;-49
2020/12/15 00:48:11;;;;;;;2.03;0.57;;;3.50;99.90;;;;;;4988193;28;20022;-54
2020/12/15 00:50:37;;;;;;;2.13;0.65;;;3.70;99.90;;;;;;4980318;28;20125;-55
2020/12/15 00:53:03;;;;;;;1.40;0.63;;;3.90;99.90;;;;;;4985272;28;20169;-58
2020/12/15 00:55:29;;;;;;;3.20;0.30;;;4.00;99.90;;;;;;4975725;28;20437;-55
2020/12/15 00:57:54;;;;;;;2.70;0.98;;;4.10;99.90;;;;;;4989069;28;20045;-54
2020/12/15 01:00:20;;;;;;;4.57;1.42;;;4.10;99.90;;;;;;4990188;28;20549;-52
2020/12/15 01:02:46;;;;;;;4.75;1.58;;;3.90;99.90;;;;;;4989653;28;20050;-51
2020/12/15 01:05:12;;;;;;;5.03;2.00;;;3.90;99.90;;;;;;4982887;28;20166;-58
2020/12/15 01:07:38;;;;;;;3.78;1.40;;;3.80;99.90;;;;;;4984387;28;20388;-58
2020/12/15 01:10:05;;;;;;;2.78;1.02;;;3.70;99.90;;;;;;4985061;28;20030;-54
2020/12/15 01:12:31;;;;;;;1.67;0.65;;;3.70;99.90;;;;;;4992090;28;20505;-52
2020/12/15 01:14:57;;;;;;;1.67;0.47;;;3.80;99.90;;;;;;4990951;28;20038;-54
2020/12/15 01:17:22;;;;;;;1.45;0.40;;;4.10;99.90;;;;;;4992582;28;20030;-54
2020/12/15 01:19:48;;;;;;;1.42;0.70;;;4.20;99.90;;;;;;4988372;28;20042;-54
2020/12/15 01:22:14;;;;;;;1.42;0.43;;;4.20;99.90;;;;;;4989912;28;20522;-55
2020/12/15 01:24:40;;;;;;;1.83;0.60;;;4.10;99.90;;;;;;4991867;28;20118;-56
2020/12/15 01:27:06;;;;;;;1.00;0.40;;;4.10;99.90;;;;;;4990592;28;20120;-56
2020/12/15 01:29:31;;;;;;;2.25;0.80;;;4.20;99.90;;;;;;4990529;28;20058;-51
2020/12/15 01:32:01;;;;;;;1.33;0.30;;;4.30;99.90;;;;;;4990681;28;20057;-52
2020/12/15 01:34:27;;;;;;;0.90;0.38;;;4.40;99.90;;;;;;4988683;28;20379;-53
2020/12/15 01:36:53;;;;;;;3.08;0.35;;;4.60;99.90;;;;;;4990072;28;20117;-57
2020/12/15 01:39:18;;;;;;;1.35;0.40;;;4.60;99.90;;;;;;4988721;28;20108;-57
2020/12/15 01:41:44;;;;;;;2.72;0.70;;;4.60;99.90;;;;;;4987498;28;20047;-58
2020/12/15 01:44:10;;;;;;;2.63;0.85;;;4.40;99.90;;;;;;4970727;28;20031;-56
2020/12/15 01:46:36;;;;;;;3.08;0.80;;;4.30;99.90;;;;;;4985879;28;20498;-53
2020/12/15 01:49:02;;;;;;;2.13;0.60;;;4.20;99.90;;;;;;4987865;28;20462;-53
2020/12/15 01:51:29;;;;;;;3.13;1.13;;;4.10;99.90;;;;;;4986843;28;20034;-58
2020/12/15 01:53:59;;;;;;;4.25;0.95;;;3.90;99.90;;;;;;4988814;28;20564;-55
2020/12/15 01:56:26;;;;;;;1.40;0.77;;;3.80;99.90;;;;;;4989807;28;20084;-53
2020/12/15 01:58:54;;;;;;;2.45;0.60;;;3.80;99.90;;;;;;4987881;28;20065;-56
2020/12/15 02:01:21;;;;;;;1.95;0.80;;;3.90;99.90;;;;;;4989420;28;20524;-57
2020/12/15 02:03:48;;;;;;;1.08;0.65;;;3.70;99.90;;;;;;4989291;28;20096;-55
2020/12/15 02:06:14;;;;;;;1.83;0.60;;;3.80;99.90;;;;;;4987689;28;20045;-57
2020/12/15 02:08:42;;;;;;;1.35;0.50;;;3.70;99.90;;;;;;4991058;28;20030;-55
2020/12/15 02:11:09;;;;;;;2.65;0.80;;;3.50;99.90;;;;;;4989993;28;20149;-57
2020/12/15 02:13:36;;;;;;;3.70;0.90;;;3.30;99.90;;;;;;4991063;28;20109;-56
2020/12/15 02:16:06;;;;;;;3.10;0.90;;;3.10;99.90;;;;;;4989766;28;20084;-55
2020/12/15 02:18:33;;;;;;;4.43;1.10;;;3.00;99.90;;;;;;4989731;28;20518;-54
2020/12/15 02:21:03;;;;;;;2.60;1.38;;;3.00;99.90;;;;;;4988901;28;20486;-57
2020/12/15 02:23:29;;;;;;;1.92;0.95;;;2.90;99.90;;;;;;4988299;28;20038;-54
2020/12/15 02:25:55;;;;;;;1.70;0.57;;;3.00;99.90;;;;;;4991082;28;20040;-55
2020/12/15 02:28:21;;;;;;;0.90;0.50;;;3.10;99.90;;;;;;4989423;28;20058;-54
2020/12/15 02:30:46;;;;;;;1.48;0.50;;;3.30;99.90;;;;;;4990470;28;20018;-54
2020/12/15 02:33:12;;;;;;;1.30;0.50;;;3.40;99.90;;;;;;4989626;28;20099;-55
2020/12/15 02:35:38;;;;;;;3.13;0.73;;;3.50;99.90;;;;;;4988688;28;20039;-57
2020/12/15 02:38:03;;;;;;;2.55;0.50;;;3.50;99.90;;;;;;4989816;28;20042;-55
2020/12/15 02:40:29;;;;;;;5.63;1.98;;;3.50;99.90;;;;;;4990673;28;20038;-56
2020/12/15 02:42:55;;;;;;;3.70;1.33;;;3.50;99.90;;;;;;4988078;28;20045;-52
2020/12/15 02:45:21;;;;;;;1.33;0.50;;;3.50;99.90;;;;;;4990298;28;20034;-55
2020/12/15 02:47:46;;;;;;;1.85;0.82;;;3.50;99.90;;;;;;4988649;28;20058;-58
2020/12/15 02:50:20;;;;;;;1.80;0.73;;;3.40;99.90;;;;;;4989017;28;20034;-54
2020/12/15 02:52:46;;;;;;;2.25;0.60;;;3.30;99.90;;;;;;4987519;28;20042;-55
2020/12/15 02:55:12;;;;;;;3.38;0.93;;;3.30;99.90;;;;;;4988861;28;20042;-54
2020/12/15 02:57:37;;;;;;;2.40;0.90;;;3.10;99.90;;;;;;4989386;28;20034;-54
2020/12/15 03:00:09;;;;;;;2.70;0.70;;;2.90;99.90;;;;;;4990383;28;20441;-55
2020/12/15 03:02:35;;;;;;;2.15;0.88;;;2.80;99.90;;;;;;4989337;28;20529;-57
2020/12/15 03:05:01;;;;;;;1.27;0.50;;;2.80;99.90;;;;;;4988135;28;20026;-55
2020/12/15 03:07:27;;;;;;;1.17;0.60;;;3.00;99.90;;;;;;4988193;28;20041;-56
2020/12/15 03:09:53;;;;;;;1.63;0.50;;;3.20;99.90;;;;;;4989908;28;20117;-58
2020/12/15 03:14:49;;;;;;;2.03;0.70;;;3.10;99.90;;;;;;4978565;22;20076;-51
2020/12/15 03:17:18;;;;;;;1.88;0.60;;;2.90;99.90;;;;;;5029058;28;20065;-58
2020/12/15 03:19:44;;;;;;;2.05;0.98;;;2.70;99.90;;;;;;5027438;28;20420;-56
2020/12/15 03:22:14;;;;;;;0.70;0.30;;;2.70;99.90;;;;;;5027609;28;20109;-57
2020/12/15 03:24:40;;;;;;;2.05;0.40;;;3.10;99.90;;;;;;5029556;28;20036;-52
2020/12/15 03:27:06;;;;;;;1.75;0.43;;;3.30;99.90;;;;;;5027161;28;20088;-52
2020/12/15 03:29:31;;;;;;;1.52;0.73;;;3.40;99.90;;;;;;5009237;28;20035;-54
2020/12/15 03:31:57;;;;;;;2.45;0.50;;;3.40;99.90;;;;;;5008439;28;20021;-54
2020/12/15 03:34:23;;;;;;;3.80;0.70;;;3.40;99.90;;;;;;5021775;28;20037;-54
2020/12/15 03:36:49;;;;;;;3.85;0.77;;;3.30;99.90;;;;;;5028716;28;20112;-54
2020/12/15 03:39:15;;;;;;;2.97;0.90;;;3.20;99.90;;;;;;5027839;28;20228;-54
2020/12/15 03:41:40;;;;;;;2.42;0.80;;;3.10;99.90;;;;;;5027232;28;20044;-54
2020/12/15 03:44:06;;;;;;;1.95;0.55;;;3.00;99.90;;;;;;5027630;28;20065;-53
2020/12/15 03:46:32;;;;;;;2.88;1.05;;;3.10;99.90;;;;;;5026167;28;20129;-54
2020/12/15 03:48:58;;;;;;;2.13;0.52;;;3.10;99.90;;;;;;5026259;28;20051;-52
2020/12/15 03:51:24;;;;;;;2.83;0.63;;;3.10;99.90;;;;;;5027670;28;20509;-54
2020/12/15 03:53:49;;;;;;;1.52;0.50;;;3.20;99.90;;;;;;5027615;28;20038;-55
2020/12/15 03:56:15;;;;;;;2.33;1.05;;;3.10;99.90;;;;;;5029002;28;20033;-54
2020/12/15 03:58:41;;;;;;;1.70;0.70;;;3.20;99.90;;;;;;5027340;28;20079;-54
2020/12/15 04:01:07;;;;;;;1.83;0.60;;;3.20;99.90;;;;;;5028455;28;20049;-52
2020/12/15 04:03:33;;;;;;;2.58;0.60;;;3.20;99.90;;;;;;5026616;28;20511;-55
2020/12/15 04:05:59;;;;;;;0.93;0.30;;;3.20;99.90;;;;;;5026407;28;20033;-57
2020/12/15 04:08:25;;;;;;;2.13;0.60;;;3.20;99.90;;;;;;5026706;28;20029;-54
2020/12/15 04:10:52;;;;;;;0.93;0.40;;;3.20;99.90;;;;;;5028581;28;20481;-57
2020/12/15 04:13:18;;;;;;;1.42;0.50;;;3.20;99.90;;;;;;5027023;28;20057;-57
2020/12/15 04:15:45;;;;;;;2.60;0.93;;;3.20;99.90;;;;;;5028388;28;20516;-50
2020/12/15 04:18:10;;;;;;;1.95;0.63;;;3.10;99.90;;;;;;5027272;28;20049;-56
2020/12/15 04:20:36;;;;;;;1.15;0.55;;;3.10;99.90;;;;;;5025844;28;20089;-56
2020/12/15 04:23:03;;;;;;;0.95;0.40;;;3.20;99.90;;;;;;5026292;28;20045;-56
2020/12/15 04:25:29;;;;;;;2.08;0.60;;;3.30;99.90;;;;;;5028323;28;20033;-56
2020/12/15 04:27:54;;;;;;;0.93;0.30;;;3.30;99.90;;;;;;5026989;28;20497;-55
2020/12/15 04:30:20;;;;;;;1.15;0.40;;;3.30;99.90;;;;;;5028508;28;20425;-54
2020/12/15 04:32:47;;;;;;;1.67;0.47;;;3.40;99.90;;;;;;5027523;28;20458;-51
2020/12/15 04:35:13;;;;;;;1.08;0.40;;;3.30;99.90;;;;;;5025373;28;20041;-51
2020/12/15 04:37:39;;;;;;;1.23;0.30;;;3.40;99.90;;;;;;5028306;28;20451;-54
2020/12/15 04:40:05;;;;;;;2.28;0.40;;;3.50;99.90;;;;;;5030285;28;20075;-57
2020/12/15 04:42:31;;;;;;;1.10;0.30;;;3.60;99.90;;;;;;5032240;28;20509;-51
2020/12/15 04:44:57;;;;;;;1.20;0.40;;;3.60;99.90;;;;;;5030685;28;20108;-51
2020/12/15 04:47:34;;;;;;;1.08;0.50;;;3.80;99.90;;;;;;5030876;28;20393;-57
2020/12/15 04:50:11;;;;;;;0.90;0.40;;;3.80;99.90;;;;;;5027833;28;20441;-54
2020/12/15 04:53:00;;;;;;;1.58;0.50;;;3.70;99.90;;;;;;5032084;28;20034;-56
2020/12/15 04:55:26;;;;;;;1.58;0.60;;;3.60;99.90;;;;;;5030074;28;20120;-52
2020/12/15 04:57:59;;;;;;;1.30;0.43;;;3.50;99.90;;;;;;5031931;28;20105;-57
2020/12/15 05:00:25;;;;;;;3.35;0.47;;;3.40;99.90;;;;;;5031222;28;20045;-56
2020/12/15 05:02:52;;;;;;;2.45;0.60;;;3.40;99.90;;;;;;5031613;28;20041;-54
2020/12/15 05:05:20;;;;;;;2.30;1.33;;;3.30;99.90;;;;;;5027418;28;20037;-52
2020/12/15 05:07:46;;;;;;;1.80;0.63;;;3.30;99.90;;;;;;5031371;28;20040;-52
2020/12/15 05:10:14;;;;;;;1.90;0.60;;;3.20;99.90;;;;;;5029433;28;20029;-53
2020/12/15 05:12:40;;;;;;;1.90;0.90;;;3.20;99.90;;;;;;5031621;28;20033;-51
2020/12/15 05:15:10;;;;;;;1.52;0.70;;;3.20;99.90;;;;;;5028885;28;20424;-56
2020/12/15 05:17:36;;;;;;;1.15;0.50;;;3.20;99.90;;;;;;5031637;28;20041;-57
2020/12/15 05:20:26;;;;;;;1.48;0.45;;;3.20;99.90;;;;;;5026732;28;20161;-57
2020/12/15 05:22:52;;;;;;;2.35;0.60;;;3.20;99.90;;;;;;5025992;28;20520;-52
2020/12/15 05:25:22;;;;;;;2.60;0.75;;;3.20;99.90;;;;;;5028898;28;20524;-52
2020/12/15 05:27:48;;;;;;;1.95;0.77;;;3.10;99.90;;;;;;5031168;28;20029;-51
2020/12/15 05:30:14;;;;;;;4.10;1.65;;;3.00;99.90;;;;;;5029946;28;20040;-52
2020/12/15 05:32:52;;;;;;;2.58;0.85;;;3.10;99.90;;;;;;5029364;28;20405;-55
2020/12/15 05:35:23;;;;;;;1.67;0.45;;;3.20;99.90;;;;;;5026833;28;20026;-52
2020/12/15 05:37:49;;;;;;;1.63;0.60;;;3.30;99.90;;;;;;5030910;28;20559;-49
2020/12/15 05:40:15;;;;;;;2.08;0.63;;;3.40;99.90;;;;;;5027549;28;20033;-51
2020/12/15 05:42:41;;;;;;;1.75;0.65;;;3.60;99.90;;;;;;5029439;28;20083;-57
2020/12/15 05:45:07;;;;;;;1.33;0.60;;;3.70;99.90;;;;;;5029031;28;20518;-57
2020/12/15 05:47:33;;;;;;;3.60;0.88;;;3.60;99.90;;;;;;5028489;28;20036;-56
2020/12/15 05:50:00;;;;;;;1.33;0.50;;;3.50;99.90;;;;;;5027902;28;20048;-53
2020/12/15 05:52:29;;;;;;;1.88;0.63;;;3.40;99.90;;;;;;5029870;28;20041;-52
2020/12/15 05:55:08;;;;;;;2.65;0.70;;;3.40;99.90;;;;;;5028340;28;20041;-48
2020/12/15 05:57:35;;;;;;;1.92;0.50;;;3.30;99.90;;;;;;5027691;28;20124;-54
2020/12/15 06:00:11;;;;;;;3.20;0.50;;;3.30;99.90;;;;;;5029052;28;20034;-54
2020/12/15 06:02:37;;;;;;;3.90;0.80;;;3.20;99.90;;;;;;5025688;28;20036;-55
2020/12/15 06:05:05;;;;;;;2.10;0.77;;;3.20;99.90;;;;;;5025592;28;20056;-48
2020/12/15 06:07:34;;;;;;;2.63;0.80;;;3.20;99.90;;;;;;5030931;28;20033;-53
2020/12/15 06:10:02;;;;;;;1.83;0.60;;;3.10;99.90;;;;;;5027787;28;20108;-54
2020/12/15 06:12:28;;;;;;;1.77;0.60;;;3.10;99.90;;;;;;5030167;28;20037;-56
2020/12/15 06:14:54;;;;;;;2.55;0.75;;;3.20;99.90;;;;;;5027151;28;20057;-51
2020/12/15 06:17:21;;;;;;;4.28;1.33;;;3.30;99.90;;;;;;5030378;28;20469;-58
2020/12/15 06:19:55;;;;;;;1.83;0.90;;;3.30;99.90;;;;;;5022545;28;20044;-51
2020/12/15 06:22:25;;;;;;;3.20;1.35;;;3.30;99.90;;;;;;5030118;28;20044;-50
2020/12/15 06:24:58;;;;;;;7.72;0.70;;;3.30;99.90;;;;;;5026745;28;20029;-51
2020/12/15 06:27:35;;;;;;;3.40;0.68;;;3.20;99.90;;;;;;5030123;28;20485;-56
2020/12/15 06:30:03;;;;;;;2.78;0.75;;;3.20;99.90;;;;;;5027596;28;20041;-51
2020/12/15 06:32:28;;;;;;;2.60;0.90;;;3.20;99.90;;;;;;5030050;28;20033;-51
2020/12/15 06:34:54;;;;;;;4.72;0.65;;;3.20;99.90;;;;;;5026874;28;20496;-56
2020/12/15 06:37:22;;;;;;;3.22;1.23;;;3.10;99.90;;;;;;5029739;28;20033;-55
2020/12/15 06:39:59;;;;;;;3.03;1.13;;;3.10;99.90;;;;;;5026563;28;20033;-55
2020/12/15 06:42:28;;;;;;;7.28;0.95;;;3.10;99.90;;;;;;5027749;28;20251;-51
2020/12/15 06:45:08;;;;;;;3.45;0.80;;;3.00;99.90;;;;;;5024868;28;20025;-56
2020/12/15 06:47:35;;;;;;;6.57;0.90;;;3.00;99.90;;;;;;5019331;28;20489;-52
2020/12/15 06:50:15;;;;;;;4.55;1.25;;;3.00;99.90;;;;;;5025048;28;20239;-54
2020/12/15 06:52:41;;;;;;;1.85;0.65;;;3.00;99.90;;;;;;5029481;28;20030;-53
2020/12/15 06:55:07;;;;;;;2.40;0.85;;;3.00;99.90;;;;;;5027122;28;20056;-51
2020/12/15 06:57:34;;;;;;;4.13;0.80;;;3.10;99.90;;;;;;5027611;28;20030;-53
2020/12/15 07:00:07;;;;;;;5.70;1.17;;;3.10;99.90;;;;;;5026952;28;20614;-54
2020/12/15 07:02:32;;;;;;;11.68;2.42;;;3.20;99.90;;;;;;5025748;28;20033;-49
2020/12/15 07:05:19;;;;;;;13.10;4.43;;;3.20;99.90;;;;;;5027344;28;20034;-56
2020/12/15 07:07:56;;;;;;;7.20;2.53;;;3.30;99.90;;;;;;5021182;28;20067;-52
2020/12/15 07:10:23;;;;;;;3.40;1.27;;;3.30;99.90;;;;;;5025234;28;20029;-51
2020/12/15 07:12:50;;;;;;;4.93;1.10;;;3.40;99.90;;;;;;5027559;28;20560;-54
2020/12/15 07:15:17;;;;;;;3.53;1.27;;;3.40;99.90;;;;;;5029398;28;20025;-56
2020/12/15 07:17:48;;;;;;;2.85;1.50;;;3.40;99.90;;;;;;5026583;28;20033;-56
2020/12/15 07:20:15;;;;;;;5.28;2.10;;;3.40;99.90;;;;;;5022591;28;20112;-55
2020/12/15 07:22:41;;;;;;;5.47;1.65;;;3.50;99.90;;;;;;5025003;28;20578;-53
2020/12/15 07:25:09;;;;;;;4.38;2.35;;;3.50;99.90;;;;;;5015582;28;20038;-50
2020/12/15 07:27:36;;;;;;;5.03;1.85;;;3.40;99.90;;;;;;5024375;28;20040;-53
2020/12/15 07:30:23;;;;;;;5.03;2.15;;;3.50;99.90;;;;;;5025176;28;20066;-51
2020/12/15 07:32:49;;;;;;;5.88;2.33;;;3.50;99.90;;;;;;5027971;28;20234;-50
2020/12/15 07:35:23;;;;;;;5.50;1.67;;;3.50;99.90;;;;;;5019828;28;20041;-53
2020/12/15 07:37:51;;;;;;;2.85;1.30;;;3.50;99.90;;;;;;5017905;28;20021;-51
2020/12/15 07:40:18;;;;;;;8.43;2.55;;;3.60;99.90;;;;;;5019851;28;20045;-55
2020/12/15 07:42:57;;;;;;;5.35;1.45;;;3.70;99.90;;;;;;5024947;28;20030;-56
2020/12/15 07:45:25;;;;;;;2.83;1.05;;;3.70;99.90;;;;;;5027403;28;20049;-54
2020/12/15 07:47:52;;;;;;;6.97;1.38;;;3.70;99.90;;;;;;5024332;28;20178;-56
2020/12/15 07:50:26;;;;;;;1.85;0.77;;;3.70;99.90;;;;;;5020492;28;20029;-54
2020/12/15 07:52:53;;;;;;;3.40;1.00;;;3.80;99.90;;;;;;5025515;28;20497;-55
2020/12/15 07:55:19;;;;;;;6.15;1.38;;;3.80;99.90;;;;;;5027225;28;20049;-53
2020/12/15 07:57:45;;;;;;;3.65;1.13;;;3.80;99.90;;;;;;5025886;28;20040;-52
2020/12/15 08:00:20;;;;;;;2.40;0.85;;;3.80;99.90;;;;;;5026162;28;20485;-54
2020/12/15 08:02:48;;;;;;;2.10;1.07;;;3.90;99.90;;;;;;5026414;28;20041;-51
2020/12/15 08:05:15;;;;;;;2.47;0.80;;;3.90;99.90;;;;;;5024854;28;20396;-50
2020/12/15 08:07:50;;;;;;;1.60;0.70;;;4.00;99.90;;;;;;5025869;28;20048;-50
2020/12/15 08:10:28;;;;;;;1.88;0.70;;;4.00;99.90;;;;;;5026058;28;20048;-56
2020/12/15 08:13:01;;;;;;;2.58;0.43;;;4.10;99.90;;;;;;5025880;28;20033;-53
2020/12/15 08:15:28;;;;;;;1.88;0.50;;;4.20;99.90;;;;;;5029937;28;20048;-50
2020/12/15 08:17:54;;;;;;;1.42;0.60;;;4.20;99.90;;;;;;5023645;28;20120;-48
2020/12/15 08:20:28;;;;;;;2.42;0.63;;;4.30;99.90;;;;;;5026960;28;20497;-54
2020/12/15 08:23:03;;;;;;;1.58;0.52;;;4.30;99.90;;;;;;5024318;28;20049;-50
2020/12/15 08:25:30;;;;;;;1.77;0.70;;;4.30;99.90;;;;;;5024115;28;20038;-53
2020/12/15 08:28:06;;;;;;;6.20;0.75;;;4.30;99.90;;;;;;5021872;28;20082;-53
2020/12/15 08:30:32;;;;;;;2.13;0.65;;;4.30;99.90;;;;;;5022603;28;20060;-51
2020/12/15 08:32:58;;;;;;;6.28;0.70;;;4.30;99.90;;;;;;5028681;28;20509;-53
2020/12/15 08:35:26;;;;;;;1.95;0.80;;;4.40;99.90;;;;;;5025390;28;20048;-52
2020/12/15 08:37:57;;;;;;;5.65;0.73;;;4.40;99.90;;;;;;5026156;28;20366;-52
2020/12/15 08:40:23;;;;;;;3.10;0.80;;;4.40;99.90;;;;;;5027151;28;20545;-55
2020/12/15 08:42:53;;;;;;;4.05;0.82;;;4.60;99.50;;;;;;5029600;28;20044;-61
2020/12/15 08:45:25;;;;;;;4.28;1.10;;;4.60;99.70;;;;;;5028196;28;20064;-55
2020/12/15 08:47:51;;;;;;;2.85;1.05;;;4.70;99.90;;;;;;5026222;28;20040;-52
2020/12/15 08:50:17;;;;;;;2.65;0.88;;;4.80;99.80;;;;;;5018245;28;20299;-54
2020/12/15 08:52:44;;;;;;;4.75;0.80;;;4.80;99.30;;;;;;5015667;28;20044;-53
2020/12/15 08:55:10;;;;;;;3.38;1.38;;;4.90;98.90;;;;;;5017509;28;20183;-53
2020/12/15 08:57:36;;;;;;;8.43;2.20;;;5.00;99.00;;;;;;5014825;28;20034;-50
2020/12/15 09:00:16;;;;;;;4.65;1.13;;;5.10;98.70;;;;;;5019238;28;20062;-54
2020/12/15 09:02:43;;;;;;;4.97;0.82;;;5.30;98.80;;;;;;5014604;28;20040;-55
2020/12/15 09:05:12;;;;;;;4.50;0.73;;;5.40;98.10;;;;;;5019174;28;20021;-55
2020/12/15 09:07:39;;;;;;;2.13;0.75;;;5.50;97.70;;;;;;5011777;28;20055;-52
2020/12/15 09:10:18;;;;;;;7.65;0.80;;;5.50;98.10;;;;;;5023543;28;20116;-52
2020/12/15 09:12:45;;;;;;;4.50;1.40;;;5.60;97.90;;;;;;5020977;28;20063;-55
2020/12/15 09:15:11;;;;;;;5.80;1.15;;;5.60;98.50;;;;;;5029803;28;20053;-53
2020/12/15 09:17:38;;;;;;;2.45;0.68;;;5.70;98.50;;;;;;5026051;28;20033;-51
2020/12/15 09:20:06;;;;;;;6.10;0.65;;;5.70;98.60;;;;;;5026546;28;20120;-48
2020/12/15 09:22:33;;;;;;;1.40;0.60;;;5.80;98.00;;;;;;5027610;28;20443;-52
2020/12/15 09:25:01;;;;;;;3.85;1.00;;;5.80;97.20;;;;;;5022739;28;20040;-49
2020/12/15 09:27:28;;;;;;;7.20;0.68;;;5.90;97.40;;;;;;5031228;28;20037;-53
2020/12/15 09:29:54;;;;;;;2.22;0.82;;;6.00;97.40;;;;;;5028522;28;20037;-55
2020/12/15 09:32:20;;;;;;;10.65;0.93;;;6.10;96.40;;;;;;5030920;28;20078;-49
2020/12/15 09:34:47;;;;;;;1.20;0.50;;;6.20;96.20;;;;;;5027049;28;20401;-55
2020/12/15 09:37:13;;;;;;;1.42;0.70;;;6.40;96.50;;;;;;5017558;28;20112;-53
2020/12/15 09:39:40;;;;;;;2.63;0.80;;;6.50;95.50;;;;;;5017662;28;20072;-53
2020/12/15 09:42:06;;;;;;;1.35;0.82;;;6.60;95.30;;;;;;5014095;28;20067;-52
2020/12/15 09:44:33;;;;;;;1.83;0.60;;;6.70;95.10;;;;;;5011260;28;20029;-50
2020/12/15 09:47:01;;;;;;;1.90;0.50;;;6.80;95.20;;;;;;5015552;28;20508;-51
2020/12/15 09:49:30;;;;;;;1.20;0.52;;;6.90;95.50;;;;;;5019009;28;20068;-50
2020/12/15 09:51:59;;;;;;;1.90;0.70;;;7.00;95.50;;;;;;5022329;28;20051;-54
2020/12/15 09:54:25;;;;;;;1.85;0.63;;;7.00;94.20;;;;;;5019822;28;20053;-52
2020/12/15 09:56:51;;;;;;;2.25;0.77;;;7.00;94.20;;;;;;5025317;28;20056;-54
2020/12/15 09:59:20;;;;;;;2.08;0.60;;;6.90;94.50;;;;;;5026189;28;20030;-53
2020/12/15 10:01:46;;;;;;;1.52;0.80;;;7.00;94.10;;;;;;5021621;28;20501;-51
2020/12/15 10:04:12;;;;;;;4.63;2.67;;;7.10;93.80;;;;;;5017725;28;20032;-52
2020/12/15 10:06:38;;;;;;;1.52;0.60;;;7.10;94.10;;;;;;5030295;28;20025;-54
2020/12/15 10:09:07;;;;;;;2.92;0.40;;;7.00;93.90;;;;;;5030431;28;20527;-51
2020/12/15 10:11:33;;;;;;;1.67;0.55;;;7.00;93.60;;;;;;5026633;28;20029;-53
2020/12/15 10:14:00;;;;;;;3.15;0.68;;;7.10;93.70;;;;;;5017956;28;20049;-50
2020/12/15 10:16:26;;;;;;;1.65;0.70;;;7.10;93.70;;;;;;5026392;28;20574;-51
2020/12/15 10:18:55;;;;;;;1.92;0.75;;;7.10;94.30;;;;;;5029827;28;20029;-55
2020/12/15 10:21:21;;;;;;;2.95;0.52;;;7.00;93.60;;;;;;5030097;28;20171;-55
2020/12/15 10:23:51;;;;;;;1.85;0.60;;;7.00;95.00;;;;;;5028796;28;20468;-54
2020/12/15 10:26:21;;;;;;;2.72;0.93;;;7.10;94.40;;;;;;5022274;28;20397;-52
2020/12/15 10:28:54;;;;;;;3.15;0.73;;;7.10;94.60;;;;;;5020878;28;20061;-50
2020/12/15 10:31:21;;;;;;;1.95;0.70;;;7.10;94.30;;;;;;5021943;28;20034;-50
2020/12/15 10:33:47;;;;;;;2.03;1.08;;;7.10;93.90;;;;;;5026365;28;20068;-52
2020/12/15 10:36:14;;;;;;;0.88;0.40;;;7.20;93.80;;;;;;5029769;28;20107;-51
2020/12/15 10:38:40;;;;;;;1.75;0.70;;;7.20;94.50;;;;;;5029409;28;20091;-55
2020/12/15 10:41:09;;;;;;;1.88;0.93;;;7.20;94.60;;;;;;5013559;28;20026;-49
2020/12/15 10:43:38;;;;;;;1.75;0.63;;;7.20;93.90;;;;;;5021956;28;20069;-54
2020/12/15 10:46:04;;;;;;;1.42;0.43;;;7.20;93.60;;;;;;5021275;28;20591;-55
2020/12/15 10:48:30;;;;;;;2.03;0.68;;;7.30;93.60;;;;;;5021026;28;20064;-52
2020/12/15 10:50:57;;;;;;;3.63;0.90;;;7.30;94.30;;;;;;5021410;28;20100;-52
2020/12/15 10:53:23;;;;;;;3.38;0.95;;;7.30;94.00;;;;;;5024443;28;20029;-51
2020/12/15 10:55:50;;;;;;;6.10;1.60;;;7.30;94.70;;;;;;5019453;28;20045;-50
2020/12/15 10:58:20;;;;;;;4.45;1.30;;;7.20;93.80;;;;;;5021174;28;20076;-54
2020/12/15 11:00:46;;;;;;;1.30;0.50;;;7.30;93.20;;;;;;5017776;28;20405;-53
2020/12/15 11:03:12;;;;;;;2.55;1.00;;;7.20;94.00;;;;;;5027462;28;20029;-52
2020/12/15 11:05:38;;;;;;;2.80;1.55;;;7.30;94.20;;;;;;5010376;28;20044;-56
2020/12/15 11:08:04;;;;;;;3.58;0.80;;;7.30;94.20;;;;;;5020295;28;20037;-51
2020/12/15 11:10:30;;;;;;;4.43;1.10;;;7.30;93.70;;;;;;5027246;28;20457;-56
2020/12/15 11:12:57;;;;;;;2.75;1.23;;;7.20;93.70;;;;;;5022000;28;20447;-54
2020/12/15 11:15:23;;;;;;;12.98;5.75;;;7.20;94.10;;;;;;5022050;28;20105;-54
2020/12/15 11:17:49;;;;;;;7.82;3.85;;;7.20;94.20;;;;;;5020779;28;20535;-50
2020/12/15 11:20:15;;;;;;;7.72;3.40;;;7.20;93.90;;;;;;5027048;28;20040;-54
2020/12/15 11:22:44;;;;;;;4.03;1.98;;;7.20;93.90;;;;;;5028665;28;20040;-54
2020/12/15 11:25:10;;;;;;;5.72;1.48;;;7.30;94.00;;;;;;5027879;28;20037;-54
2020/12/15 11:27:36;;;;;;;4.28;1.20;;;7.30;93.60;;;;;;5019963;28;20594;-55
2020/12/15 11:30:02;;;;;;;5.50;0.80;;;7.30;93.50;;;;;;5014628;28;20033;-54
2020/12/15 11:32:28;;;;;;;2.65;0.88;;;7.30;93.60;;;;;;5009476;28;20033;-53
2020/12/15 11:34:54;;;;;;;2.28;0.73;;;7.30;93.60;;;;;;5028401;28;20103;-52
2020/12/15 11:37:19;;;;;;;2.47;0.63;;;7.30;93.90;;;;;;5023898;28;20350;-52
2020/12/15 11:39:45;;;;;;;1.98;0.98;;;7.30;93.40;;;;;;5024670;28;20052;-51
2020/12/15 11:42:12;;;;;;;3.70;1.08;;;7.30;93.70;;;;;;5024611;28;20053;-53
2020/12/15 11:44:38;;;;;;;3.50;0.80;;;7.30;93.60;;;;;;5024348;28;20437;-51
2020/12/15 11:47:03;;;;;;;2.92;0.85;;;7.30;94.50;;;;;;5023207;28;20068;-53
2020/12/15 11:49:29;;;;;;;2.88;0.93;;;7.40;94.10;;;;;;5026080;28;20033;-57
2020/12/15 11:51:55;;;;;;;4.75;1.30;;;7.30;93.80;;;;;;5023991;28;20038;-54
2020/12/15 11:54:22;;;;;;;2.15;0.75;;;7.30;95.00;;;;;;5008964;28;20377;-55
2020/12/15 11:56:50;;;;;;;2.55;1.10;;;7.30;94.80;;;;;;5012587;28;20045;-54
2020/12/15 11:59:17;;;;;;;2.70;1.00;;;7.20;94.20;;;;;;5023659;28;20414;-54
2020/12/15 12:01:42;;;;;;;2.50;1.25;;;7.30;94.20;;;;;;5025251;28;20045;-53
2020/12/15 12:04:08;;;;;;;4.32;1.42;;;7.30;94.20;;;;;;5008907;28;20631;-51
2020/12/15 12:06:34;;;;;;;4.45;2.13;;;7.30;94.30;;;;;;5017911;28;20077;-52
2020/12/15 12:09:01;;;;;;;9.77;2.95;;;7.20;93.60;;;;;;5015227;28;20037;-56
2020/12/15 12:11:27;;;;;;;7.25;3.70;;;7.20;93.80;;;;;;5015669;28;20042;-51
2020/12/15 12:13:54;;;;;;;5.40;2.50;;;7.20;93.60;;;;;;5013610;28;20064;-55
2020/12/15 12:16:19;;;;;;;5.50;2.03;;;7.20;93.70;;;;;;5022220;28;20026;-52
2020/12/15 12:18:45;;;;;;;9.88;2.40;;;7.10;94.10;;;;;;5021757;28;20108;-53
2020/12/15 12:21:11;;;;;;;3.72;1.67;;;7.20;94.40;;;;;;5017492;28;20282;-53
2020/12/15 12:23:39;;;;;;;2.97;1.25;;;7.20;94.80;;;;;;5028672;28;20037;-52
2020/12/15 12:26:05;;;;;;;6.00;2.05;;;7.10;95.90;;;;;;5024274;28;20041;-53
2020/12/15 12:28:32;;;;;;;5.35;1.95;;;7.10;96.20;;;;;;5027536;28;20030;-52
2020/12/15 12:30:58;;;;;;;5.20;2.80;;;7.10;96.20;;;;;;5026425;28;20039;-54
2020/12/15 12:33:24;;;;;;;6.82;2.78;;;7.10;96.80;;;;;;5027173;28;20216;-54
2020/12/15 12:35:53;;;;;;;5.40;2.45;;;7.10;96.00;;;;;;5026118;28;20034;-53
2020/12/15 12:38:21;;;;;;;3.92;2.10;;;7.10;96.40;;;;;;5022773;28;20532;-54
2020/12/15 12:40:47;;;;;;;5.95;1.83;;;7.10;95.90;;;;;;5024605;28;20045;-52
2020/12/15 12:43:14;;;;;;;4.35;1.85;;;7.00;96.40;;;;;;5018448;28;20048;-53
2020/12/15 12:45:40;;;;;;;11.70;3.05;;;7.00;97.10;;;;;;5024661;28;20038;-55
2020/12/15 12:48:10;;;;;;;7.50;2.45;;;7.00;97.10;;;;;;5020776;28;20235;-56
2020/12/15 12:50:36;;;;;;;4.85;2.33;;;7.00;97.30;;;;;;5026976;28;20046;-47
2020/12/15 12:53:02;;;;;;;6.18;1.48;;;7.00;97.30;;;;;;5025030;28;20698;-51
2020/12/15 12:55:28;;;;;;;7.53;1.95;;;7.00;97.30;;;;;;5026605;28;20037;-51
2020/12/15 12:57:54;;;;;;;11.00;3.60;;;7.00;97.50;;;;;;5027552;28;20037;-49
2020/12/15 13:00:21;;;;;;;10.98;3.47;;;7.00;97.80;;;;;;5027124;28;20599;-49
2020/12/15 13:02:47;;;;;;;10.23;3.25;;;7.00;97.70;;;;;;5027138;28;20556;-49